createdAt,value
2024-02-13T00:01:13.127Z,47.90
2024-02-13T00:02:54.689Z,48.28
2024-02-13T00:04:36.126Z,48.71
2024-02-13T00:06:17.485Z,49.28
2024-02-13T00:07:58.906Z,49.21
2024-02-13T00:09:40.300Z,49.56
2024-02-13T00:11:21.686Z,49.79
2024-02-13T00:13:03.043Z,51.57
2024-02-13T00:14:46.219Z,51.91
2024-02-13T00:16:28.485Z,51.60
2024-02-13T00:18:10.142Z,51.34
2024-02-13T00:19:51.667Z,51.46
2024-02-13T00:21:33.047Z,51.07
2024-02-13T00:23:14.387Z,50.36
2024-02-13T00:24:55.772Z,49.76
2024-02-13T00:26:37.146Z,49.71
2024-02-13T00:28:18.604Z,49.61
2024-02-13T00:29:59.978Z,49.60
2024-02-13T00:31:41.325Z,49.33
2024-02-13T00:33:22.725Z,48.64
2024-02-13T00:35:04.168Z,48.34
2024-02-13T00:36:45.538Z,48.83
2024-02-13T00:38:26.922Z,48.61
2024-02-13T00:40:08.305Z,50.03
2024-02-13T00:41:49.738Z,51.06
2024-02-13T00:43:31.253Z,52.16
2024-02-13T00:45:13.214Z,52.66
2024-02-13T00:46:54.638Z,52.99
2024-02-13T00:48:36.014Z,52.55
2024-02-13T00:50:17.416Z,52.27
2024-02-13T00:51:58.786Z,51.49
2024-02-13T00:53:40.129Z,50.37
2024-02-13T00:55:21.516Z,50.38
2024-02-13T00:57:02.922Z,50.39
2024-02-13T00:58:44.305Z,49.81
2024-02-13T01:00:25.713Z,49.98
2024-02-13T01:02:07.070Z,49.59
2024-02-13T01:03:48.469Z,49.57
2024-02-13T01:05:29.855Z,50.86
2024-02-13T01:07:11.300Z,51.04
2024-02-13T01:08:52.698Z,50.22
2024-02-13T01:10:34.088Z,50.05
2024-02-13T01:12:15.465Z,50.36
2024-02-13T01:13:56.806Z,50.52
2024-02-13T01:15:38.219Z,50.13
2024-02-13T01:17:19.583Z,49.92
2024-02-13T01:19:01.077Z,50.48
2024-02-13T01:20:42.573Z,50.22
2024-02-13T01:22:23.936Z,50.33
2024-02-13T01:24:05.375Z,49.94
2024-02-13T01:25:46.725Z,49.15
2024-02-13T01:27:28.077Z,48.54
2024-02-13T01:29:09.445Z,48.62
2024-02-13T01:30:50.848Z,48.56
2024-02-13T01:32:32.298Z,48.77
2024-02-13T01:34:13.766Z,48.34
2024-02-13T01:35:55.321Z,48.72
2024-02-13T01:37:36.783Z,48.18
2024-02-13T01:39:18.202Z,50.04
2024-02-13T01:40:59.685Z,50.35
2024-02-13T01:42:41.057Z,50.47
2024-02-13T01:44:22.471Z,49.44
2024-02-13T01:46:03.909Z,48.44
2024-02-13T01:47:45.365Z,48.43
2024-02-13T01:49:26.870Z,49.13
2024-02-13T01:51:08.365Z,50.61
2024-02-13T01:52:49.749Z,51.51
2024-02-13T01:54:31.094Z,51.66
2024-02-13T01:56:12.495Z,52.50
2024-02-13T01:57:53.871Z,52.41
2024-02-13T01:59:35.258Z,51.66
2024-02-13T02:01:16.657Z,50.49
2024-02-13T02:02:58.108Z,50.87
2024-02-13T02:04:39.537Z,51.09
2024-02-13T02:06:20.985Z,49.95
2024-02-13T02:08:02.453Z,50.26
2024-02-13T02:09:43.870Z,51.00
2024-02-13T02:11:26.542Z,50.76
2024-02-13T02:13:08.148Z,49.68
2024-02-13T02:14:49.707Z,49.97
2024-02-13T02:16:31.110Z,49.79
2024-02-13T02:18:12.592Z,49.97
2024-02-13T02:19:54.119Z,49.95
2024-02-13T02:21:35.477Z,48.41
2024-02-13T02:23:16.811Z,47.25
2024-02-13T02:24:58.205Z,47.78
2024-02-13T02:26:39.597Z,47.59
2024-02-13T02:28:21.080Z,48.27
2024-02-13T02:30:02.489Z,49.51
2024-02-13T02:31:43.890Z,50.30
2024-02-13T02:33:25.308Z,51.17
2024-02-13T02:35:06.803Z,52.20
2024-02-13T02:36:48.159Z,52.68
2024-02-13T02:38:29.526Z,52.79
2024-02-13T02:40:10.907Z,53.22
2024-02-13T02:41:52.390Z,53.33
2024-02-13T02:43:33.917Z,54.21
2024-02-13T02:45:15.303Z,54.32
2024-02-13T02:46:56.658Z,54.75
2024-02-13T02:48:38.080Z,54.37
2024-02-13T02:50:19.521Z,53.78
2024-02-13T02:52:00.921Z,53.66
2024-02-13T02:53:42.481Z,52.61
2024-02-13T02:55:24.163Z,51.96
2024-02-13T02:57:05.613Z,51.75
2024-02-13T02:58:47.013Z,50.82
2024-02-13T03:00:28.376Z,50.02
2024-02-13T03:02:09.773Z,49.65
2024-02-13T03:03:51.349Z,50.31
2024-02-13T03:05:32.880Z,50.47
2024-02-13T03:07:14.257Z,51.23
2024-02-13T03:08:55.669Z,50.82
2024-02-13T03:10:37.072Z,51.88
2024-02-13T03:12:18.413Z,53.29
2024-02-13T03:13:59.764Z,54.30
2024-02-13T03:15:41.148Z,55.13
2024-02-13T03:17:22.611Z,55.42
2024-02-13T03:19:04.172Z,55.46
2024-02-13T03:20:45.587Z,54.88
2024-02-13T03:22:27.015Z,54.04
2024-02-13T03:24:08.400Z,55.73
2024-02-13T03:25:49.779Z,54.54
2024-02-13T03:27:31.142Z,53.33
2024-02-13T03:29:12.555Z,52.75
2024-02-13T03:30:53.910Z,51.04
2024-02-13T03:32:35.499Z,51.56
2024-02-13T03:34:17.209Z,52.28
2024-02-13T03:35:58.619Z,51.47
2024-02-13T03:37:39.965Z,50.46
2024-02-13T03:39:21.322Z,49.55
2024-02-13T03:41:02.679Z,49.68
2024-02-13T03:42:44.018Z,51.23
2024-02-13T03:44:25.393Z,50.18
2024-02-13T03:46:06.718Z,49.92
2024-02-13T03:47:48.202Z,50.77
2024-02-13T03:49:29.703Z,51.32
2024-02-13T03:51:11.108Z,51.07
2024-02-13T03:52:52.461Z,50.67
2024-02-13T03:54:33.851Z,51.70
2024-02-13T03:56:15.242Z,52.17
2024-02-13T03:57:56.592Z,52.16
2024-02-13T03:59:38.134Z,52.39
2024-02-13T04:01:19.495Z,52.10
2024-02-13T04:03:00.824Z,51.77
2024-02-13T04:04:42.204Z,51.74
2024-02-13T04:06:23.706Z,50.67
2024-02-13T04:08:05.119Z,50.56
2024-02-13T04:09:46.508Z,50.97
2024-02-13T04:11:27.876Z,51.39
2024-02-13T04:13:09.241Z,49.47
2024-02-13T04:14:50.758Z,49.43
2024-02-13T04:16:32.394Z,47.92
2024-02-13T04:18:13.862Z,50.93
2024-02-13T04:19:55.272Z,49.55
2024-02-13T04:21:36.635Z,49.07
2024-02-13T04:23:17.957Z,49.54
2024-02-13T04:24:59.323Z,48.94
2024-02-13T04:28:21.995Z,48.26
2024-02-13T04:30:03.393Z,48.38
2024-02-13T04:31:44.767Z,47.09
2024-02-13T04:33:26.246Z,46.64
2024-02-13T04:35:07.749Z,47.00
2024-02-13T04:36:49.125Z,47.01
2024-02-13T04:38:30.489Z,46.97
2024-02-13T04:40:13.830Z,47.67
2024-02-13T04:41:56.084Z,48.09
2024-02-13T04:43:37.420Z,48.47
2024-02-13T04:45:18.774Z,49.34
2024-02-13T04:47:00.125Z,51.00
2024-02-13T04:48:41.563Z,51.12
2024-02-13T04:50:23.003Z,50.54
2024-02-13T04:52:04.333Z,50.16
2024-02-13T04:53:46.429Z,51.23
2024-02-13T04:55:28.134Z,52.91
2024-02-13T04:57:09.524Z,54.16
2024-02-13T04:58:50.882Z,53.21
2024-02-13T05:00:32.250Z,53.28
2024-02-13T05:02:13.634Z,53.74
2024-02-13T05:03:55.023Z,52.96
2024-02-13T05:05:36.660Z,52.52
2024-02-13T05:07:18.215Z,49.49
2024-02-13T05:08:59.550Z,49.61
2024-02-13T05:10:40.949Z,48.89
2024-02-13T05:12:22.340Z,50.70
2024-02-13T05:14:03.890Z,49.66
2024-02-13T05:15:45.470Z,49.90
2024-02-13T05:17:26.912Z,51.52
2024-02-13T05:19:08.481Z,52.63
2024-02-13T05:20:50.085Z,52.16
2024-02-13T05:22:31.519Z,51.31
2024-02-13T05:24:12.885Z,48.92
2024-02-13T05:25:54.272Z,48.81
2024-02-13T05:27:35.643Z,47.51
2024-02-13T05:29:17.020Z,47.51
2024-02-13T05:30:58.404Z,47.28
2024-02-13T05:32:39.807Z,46.58
2024-02-13T05:34:21.238Z,47.70
2024-02-13T05:36:02.655Z,47.56
2024-02-13T05:37:44.004Z,47.79
2024-02-13T05:39:25.331Z,48.16
2024-02-13T05:41:06.698Z,48.94
2024-02-13T05:42:48.053Z,49.38
2024-02-13T05:44:29.412Z,49.61
2024-02-13T05:46:10.820Z,51.47
2024-02-13T05:47:52.260Z,50.73
2024-02-13T05:49:34.222Z,50.33
2024-02-13T05:51:15.871Z,49.96
2024-02-13T05:52:57.236Z,51.17
2024-02-13T05:54:39.944Z,50.91
2024-02-13T05:56:27.246Z,50.28
2024-02-13T05:58:09.768Z,50.39
2024-02-13T05:59:51.227Z,50.26
2024-02-13T06:01:32.760Z,49.94
2024-02-13T06:03:14.180Z,51.31
2024-02-13T06:04:55.517Z,50.70
2024-02-13T06:06:36.954Z,49.18
2024-02-13T06:08:18.401Z,48.77
2024-02-13T06:09:59.764Z,48.55
2024-02-13T06:11:41.288Z,47.39
2024-02-13T06:13:22.726Z,47.63
2024-02-13T06:15:04.138Z,47.41
2024-02-13T06:16:45.562Z,47.65
2024-02-13T06:18:27.062Z,47.47
2024-02-13T06:20:08.610Z,47.54
2024-02-13T06:21:49.963Z,47.80
2024-02-13T06:23:31.506Z,47.33
2024-02-13T06:25:12.963Z,45.97
2024-02-13T06:26:56.963Z,45.15
2024-02-13T06:28:38.524Z,43.16
2024-02-13T06:30:19.952Z,44.06
2024-02-13T06:32:01.332Z,45.28
2024-02-13T06:33:42.923Z,44.25
2024-02-13T06:35:24.396Z,43.92
2024-02-13T06:37:05.738Z,43.84
2024-02-13T06:38:47.142Z,44.44
2024-02-13T06:40:28.527Z,45.04
2024-02-13T06:42:09.953Z,44.73
2024-02-13T06:43:51.337Z,43.52
2024-02-13T06:45:32.771Z,43.15
2024-02-13T06:47:14.263Z,43.70
2024-02-13T06:48:55.870Z,45.14
2024-02-13T06:50:37.336Z,44.40
2024-02-13T06:52:18.739Z,44.77
2024-02-13T06:54:00.270Z,44.10
2024-02-13T06:55:41.721Z,44.77
2024-02-13T06:57:23.084Z,44.36
2024-02-13T06:59:04.622Z,45.34
2024-02-13T07:00:46.033Z,45.78
2024-02-13T07:02:27.409Z,46.17
2024-02-13T07:04:08.789Z,45.64
2024-02-13T07:05:51.446Z,43.20
2024-02-13T07:07:42.237Z,44.66
2024-02-13T07:09:28.743Z,45.01
2024-02-13T07:11:10.223Z,43.98
2024-02-13T07:12:51.554Z,45.26
2024-02-13T07:14:33.249Z,46.37
2024-02-13T07:16:14.695Z,46.73
2024-02-13T07:18:00.533Z,44.05
2024-02-13T07:19:43.405Z,42.82
2024-02-13T07:21:26.212Z,44.52
2024-02-13T07:23:09.772Z,47.31
2024-02-13T07:24:51.131Z,47.05
2024-02-13T07:26:32.500Z,47.65
2024-02-13T07:28:13.929Z,47.26
2024-02-13T07:29:55.434Z,47.34
2024-02-13T07:31:37.046Z,46.86
2024-02-13T07:33:18.617Z,47.70
2024-02-13T07:35:00.061Z,46.62
2024-02-13T07:36:41.533Z,46.13
2024-02-13T07:38:22.947Z,46.81
2024-02-13T07:40:04.368Z,46.10
2024-02-13T07:41:45.897Z,46.22
2024-02-13T07:43:27.292Z,45.68
2024-02-13T07:45:08.623Z,45.16
2024-02-13T07:46:51.353Z,44.21
2024-02-13T07:48:33.151Z,45.70
2024-02-13T07:50:15.122Z,46.14
2024-02-13T07:51:56.765Z,45.84
2024-02-13T07:53:38.186Z,46.74
2024-02-13T07:55:19.552Z,44.30
2024-02-13T07:57:00.920Z,43.40
2024-02-13T07:58:42.265Z,43.54
2024-02-13T08:00:23.657Z,42.69
2024-02-13T08:02:05.050Z,43.42
2024-02-13T08:03:46.549Z,42.87
2024-02-13T08:05:27.954Z,43.78
2024-02-13T08:07:10.453Z,42.40
2024-02-13T08:08:52.092Z,39.93
2024-02-13T08:10:33.517Z,40.74
2024-02-13T08:12:14.847Z,41.02
2024-02-13T08:13:56.572Z,41.46
2024-02-13T08:15:38.200Z,42.10
2024-02-13T08:17:19.623Z,42.85
2024-02-13T08:19:01.239Z,41.91
2024-02-13T08:20:42.723Z,42.55
2024-02-13T08:22:24.424Z,42.92
2024-02-13T08:24:06.068Z,43.38
2024-02-13T08:25:47.418Z,40.72
2024-02-13T08:27:28.760Z,36.48
2024-02-13T08:29:10.129Z,35.40
2024-02-13T08:30:51.722Z,39.95
2024-02-13T08:32:33.322Z,38.63
2024-02-13T08:34:15.775Z,40.03
2024-02-13T08:35:57.401Z,41.72
2024-02-13T08:37:38.816Z,43.99
2024-02-13T08:39:20.194Z,45.86
2024-02-13T08:41:01.533Z,42.12
2024-02-13T08:42:42.875Z,37.20
2024-02-13T08:44:24.307Z,40.82
2024-02-13T08:46:05.680Z,40.66
2024-02-13T08:47:47.105Z,34.83
2024-02-13T08:49:28.833Z,33.71
2024-02-13T08:51:10.395Z,37.91
2024-02-13T08:52:51.836Z,38.22
2024-02-13T08:54:33.229Z,39.17
2024-02-13T08:56:14.598Z,36.35
2024-02-13T08:57:55.966Z,35.71
2024-02-13T08:59:37.378Z,33.42
2024-02-13T09:01:18.772Z,31.51
2024-02-13T09:03:00.350Z,28.41
2024-02-13T09:04:41.882Z,27.65
2024-02-13T09:06:23.511Z,28.18
2024-02-13T09:08:04.891Z,27.63
2024-02-13T09:09:46.643Z,28.04
2024-02-13T09:11:28.021Z,30.12
2024-02-13T09:13:09.458Z,30.54
2024-02-13T09:14:50.902Z,30.27
2024-02-13T09:16:32.240Z,28.83
2024-02-13T09:18:13.738Z,28.23
2024-02-13T09:19:55.210Z,29.39
2024-02-13T09:21:36.614Z,27.17
2024-02-13T09:23:18.094Z,27.79
2024-02-13T09:24:59.448Z,26.95
2024-02-13T09:26:40.831Z,26.01
2024-02-13T09:28:22.179Z,26.56
2024-02-13T09:30:03.558Z,25.53
2024-02-13T09:31:47.366Z,23.83
2024-02-13T09:33:29.278Z,23.88
2024-02-13T09:35:10.757Z,23.68
2024-02-13T09:36:52.097Z,22.62
2024-02-13T09:38:33.539Z,22.33
2024-02-13T09:40:15.011Z,22.51
2024-02-13T09:41:56.436Z,21.45
2024-02-13T09:43:41.744Z,21.34
2024-02-13T09:45:25.882Z,20.16
2024-02-13T09:47:07.234Z,18.82
2024-02-13T09:48:49.144Z,18.63
2024-02-13T09:50:33.137Z,18.42
2024-02-13T09:52:14.493Z,19.54
2024-02-13T09:53:55.891Z,19.34
2024-02-13T09:55:37.630Z,18.69
2024-02-13T09:57:19.739Z,18.38
2024-02-13T09:59:01.137Z,16.88
2024-02-13T10:00:42.499Z,17.09
2024-02-13T10:02:23.899Z,17.24
2024-02-13T10:04:05.365Z,17.78
2024-02-13T10:05:46.913Z,16.84
2024-02-13T10:07:28.507Z,16.92
2024-02-13T10:09:09.962Z,16.70
2024-02-13T10:10:51.360Z,16.39
2024-02-13T10:12:32.723Z,15.33
2024-02-13T10:14:14.123Z,15.01
2024-02-13T10:15:55.475Z,15.41
2024-02-13T10:17:36.884Z,14.04
2024-02-13T10:19:18.323Z,13.50
2024-02-13T10:20:59.770Z,13.60
2024-02-13T10:22:41.194Z,13.43
2024-02-13T10:24:22.529Z,14.88
2024-02-13T10:26:03.912Z,14.50
2024-02-13T10:27:45.248Z,15.48
2024-02-13T10:29:26.632Z,15.34
2024-02-13T10:31:08.032Z,14.77
2024-02-13T10:32:49.461Z,14.39
2024-02-13T10:34:30.846Z,15.01
2024-02-13T10:36:12.262Z,15.85
2024-02-13T10:37:53.934Z,14.40
2024-02-13T10:39:35.377Z,14.61
2024-02-13T10:41:16.782Z,14.64
2024-02-13T10:42:58.182Z,15.53
2024-02-13T10:44:40.172Z,14.83
2024-02-13T10:46:21.575Z,14.78
2024-02-13T10:48:03.018Z,13.85
2024-02-13T10:49:44.574Z,14.20
2024-02-13T10:51:25.971Z,13.44
2024-02-13T10:53:07.351Z,14.82
2024-02-13T10:54:48.741Z,16.97
2024-02-13T10:56:30.147Z,16.35
2024-02-13T10:58:17.636Z,16.35
2024-02-13T11:00:05.773Z,16.23
2024-02-13T11:01:47.222Z,16.92
2024-02-13T11:03:28.721Z,15.18
2024-02-13T11:05:10.211Z,15.58
2024-02-13T11:06:51.764Z,14.83
2024-02-13T11:08:33.130Z,14.74
2024-02-13T11:10:14.514Z,14.32
2024-02-13T11:11:56.082Z,14.03
2024-02-13T11:13:37.553Z,14.69
2024-02-13T11:15:18.968Z,14.65
2024-02-13T11:17:00.312Z,15.57
2024-02-13T11:18:41.774Z,14.76
2024-02-13T11:20:23.339Z,15.73
2024-02-13T11:22:04.796Z,15.45
2024-02-13T11:23:46.220Z,16.15
2024-02-13T11:25:27.773Z,15.87
2024-02-13T11:27:20.070Z,16.02
2024-02-13T11:29:08.460Z,16.34
2024-02-13T11:30:49.944Z,17.07
2024-02-13T11:32:31.458Z,17.67
2024-02-13T11:34:12.963Z,17.33
2024-02-13T11:35:54.792Z,16.52
2024-02-13T11:37:36.448Z,16.18
2024-02-13T11:39:17.807Z,16.76
2024-02-13T11:40:59.339Z,16.88
2024-02-13T11:42:40.690Z,16.82
2024-02-13T11:44:22.235Z,17.24
2024-02-13T11:46:03.777Z,17.20
2024-02-13T11:47:45.167Z,17.61
2024-02-13T11:49:27.205Z,16.78
2024-02-13T11:51:08.756Z,16.50
2024-02-13T11:52:50.130Z,16.83
2024-02-13T11:54:31.948Z,16.62
2024-02-13T11:56:13.442Z,16.72
2024-02-13T11:57:54.784Z,17.93
2024-02-13T11:59:36.155Z,18.37
2024-02-13T12:01:17.582Z,17.76
2024-02-13T12:02:59.039Z,17.19
2024-02-13T12:04:40.572Z,17.70
2024-02-13T12:06:21.959Z,18.58
2024-02-13T12:08:03.337Z,17.21
2024-02-13T12:09:44.680Z,17.54
2024-02-13T12:11:26.102Z,17.56
2024-02-13T12:13:07.482Z,17.87
2024-02-13T12:14:48.947Z,17.90
2024-02-13T12:16:30.377Z,17.13
2024-02-13T12:18:11.855Z,18.04
2024-02-13T12:19:53.324Z,17.46
2024-02-13T12:21:34.832Z,16.45
2024-02-13T12:23:16.230Z,16.39
2024-02-13T12:24:58.854Z,16.57
2024-02-13T12:26:40.274Z,15.49
2024-02-13T12:28:21.616Z,15.98
2024-02-13T12:30:03.008Z,15.87
2024-02-13T12:31:44.433Z,15.37
2024-02-13T12:33:25.929Z,16.05
2024-02-13T12:35:07.397Z,15.72
2024-02-13T12:36:48.833Z,15.64
2024-02-13T12:38:31.578Z,16.02
2024-02-13T12:40:13.306Z,16.61
2024-02-13T12:41:54.724Z,15.36
2024-02-13T12:43:36.116Z,15.82
2024-02-13T12:45:17.539Z,17.00
2024-02-13T12:46:59.033Z,15.44
2024-02-13T12:48:41.439Z,15.68
2024-02-13T12:50:23.397Z,15.75
2024-02-13T12:52:04.945Z,13.27
2024-02-13T12:53:46.303Z,12.70
2024-02-13T12:55:27.692Z,10.25
2024-02-13T12:57:09.077Z,11.74
2024-02-13T12:58:50.410Z,11.84
2024-02-13T13:00:31.747Z,12.01
2024-02-13T13:02:13.086Z,11.83
2024-02-13T13:03:54.463Z,15.07
2024-02-13T13:05:35.948Z,16.95
2024-02-13T13:07:17.347Z,17.83
2024-02-13T13:08:58.924Z,18.63
2024-02-13T13:10:40.489Z,18.05
2024-02-13T13:12:21.919Z,18.02
2024-02-13T13:14:03.359Z,18.67
2024-02-13T13:15:44.801Z,17.32
2024-02-13T13:17:26.255Z,17.79
2024-02-13T13:19:07.998Z,17.78
2024-02-13T13:20:49.682Z,17.77
2024-02-13T13:22:31.164Z,18.01
2024-02-13T13:24:12.588Z,16.79
2024-02-13T13:25:54.233Z,17.61
2024-02-13T13:27:35.661Z,16.02
2024-02-13T13:29:17.213Z,15.04
2024-02-13T13:30:58.701Z,12.49
2024-02-13T13:32:40.155Z,13.52
2024-02-13T13:34:22.323Z,14.77
2024-02-13T13:36:04.102Z,15.23
2024-02-13T13:37:45.622Z,15.55
2024-02-13T13:39:26.997Z,16.34
2024-02-13T13:41:08.517Z,16.76
2024-02-13T13:42:50.142Z,16.58
2024-02-13T13:44:31.790Z,16.86
2024-02-13T13:46:13.164Z,16.88
2024-02-13T13:47:54.600Z,17.48
2024-02-13T13:49:36.232Z,17.53
2024-02-13T13:51:17.760Z,16.92
2024-02-13T13:52:59.116Z,18.67
2024-02-13T13:54:40.438Z,18.23
2024-02-13T13:56:21.849Z,17.99
2024-02-13T13:58:03.258Z,17.95
2024-02-13T13:59:44.648Z,19.52
2024-02-13T14:01:26.087Z,17.97
2024-02-13T14:03:07.507Z,18.06
2024-02-13T14:04:48.874Z,17.03
2024-02-13T14:06:30.316Z,17.73
2024-02-13T14:08:11.724Z,18.59
2024-02-13T14:09:53.166Z,17.09
2024-02-13T14:11:34.522Z,17.28
2024-02-13T14:13:15.890Z,15.92
2024-02-13T14:14:57.277Z,18.27
2024-02-13T14:16:38.687Z,19.91
2024-02-13T14:18:20.288Z,20.13
2024-02-13T14:20:01.850Z,19.74
2024-02-13T14:21:43.287Z,19.76
2024-02-13T14:23:24.900Z,19.14
2024-02-13T14:25:06.373Z,17.51
2024-02-13T14:26:48.020Z,17.29
2024-02-13T14:28:29.624Z,17.24
2024-02-13T14:30:10.996Z,18.64
2024-02-13T14:31:52.357Z,18.63
2024-02-13T14:33:34.128Z,20.01
2024-02-13T14:35:15.696Z,18.75
2024-02-13T14:36:57.083Z,17.87
2024-02-13T14:38:38.467Z,19.00
2024-02-13T14:40:19.885Z,18.14
2024-02-13T14:42:01.584Z,19.36
2024-02-13T14:43:43.195Z,19.55
2024-02-13T14:45:24.576Z,20.66
2024-02-13T14:47:05.925Z,20.65
2024-02-13T14:48:48.515Z,21.83
2024-02-13T14:50:30.355Z,22.67
2024-02-13T14:52:12.122Z,23.05
2024-02-13T14:53:53.625Z,24.22
2024-02-13T14:55:35.077Z,24.45
2024-02-13T14:57:16.526Z,23.66
2024-02-13T14:58:57.921Z,24.90
2024-02-13T15:00:39.418Z,25.31
2024-02-13T15:02:20.946Z,22.95
2024-02-13T15:04:02.341Z,25.00
2024-02-13T15:05:43.824Z,25.43
2024-02-13T15:07:25.362Z,23.17
2024-02-13T15:09:06.942Z,25.87
2024-02-13T15:10:48.428Z,25.56
2024-02-13T15:12:29.788Z,27.58
2024-02-13T15:14:11.160Z,27.76
2024-02-13T15:15:52.957Z,28.76
2024-02-13T15:17:34.481Z,26.36
2024-02-13T15:19:16.225Z,26.20
2024-02-13T15:20:57.880Z,26.12
2024-02-13T15:22:39.253Z,25.67
2024-02-13T15:24:20.856Z,25.01
2024-02-13T15:26:02.392Z,28.22
2024-02-13T15:27:43.812Z,27.27
2024-02-13T15:29:25.254Z,29.40
2024-02-13T15:31:06.649Z,27.44
2024-02-13T15:32:48.161Z,26.44
2024-02-13T15:34:29.604Z,27.10
2024-02-13T15:36:11.061Z,28.82
2024-02-13T15:37:52.490Z,30.97
2024-02-13T15:39:34.066Z,31.33
2024-02-13T15:41:15.465Z,29.37
2024-02-13T15:42:58.884Z,30.46
2024-02-13T15:44:41.142Z,26.89
2024-02-13T15:46:22.662Z,28.29
2024-02-13T15:48:04.236Z,29.01
2024-02-13T15:49:45.758Z,29.37
2024-02-13T15:51:27.272Z,32.13
2024-02-13T15:53:08.623Z,32.48
2024-02-13T15:54:49.993Z,32.49
2024-02-13T15:56:31.379Z,31.62
2024-02-13T15:58:12.776Z,30.25
2024-02-13T15:59:54.196Z,29.50
2024-02-13T16:01:35.671Z,30.25
2024-02-13T16:03:17.181Z,30.13
2024-02-13T16:04:58.534Z,30.40
2024-02-13T16:06:39.982Z,31.12
2024-02-13T16:08:21.792Z,29.12
2024-02-13T16:10:03.406Z,31.22
2024-02-13T16:11:45.013Z,29.87
2024-02-13T16:13:28.387Z,31.30
2024-02-13T16:15:11.192Z,30.09
2024-02-13T16:16:55.576Z,30.76
2024-02-13T16:18:37.189Z,30.35
2024-02-13T16:20:18.713Z,31.34
2024-02-13T16:22:00.360Z,30.20
2024-02-13T16:23:41.904Z,34.38
2024-02-13T16:25:23.367Z,33.48
2024-02-13T16:27:04.988Z,33.78
2024-02-13T16:28:46.548Z,31.08
2024-02-13T16:30:28.056Z,27.95
2024-02-13T16:32:09.584Z,29.28
2024-02-13T16:33:51.151Z,31.34
2024-02-13T16:35:32.935Z,29.70
2024-02-13T16:37:14.338Z,31.34
2024-02-13T16:38:55.773Z,31.63
2024-02-13T16:40:37.194Z,30.38
2024-02-13T16:42:18.694Z,31.60
2024-02-13T16:44:00.101Z,31.59
2024-02-13T16:45:41.642Z,29.55
2024-02-13T16:47:23.284Z,29.65
2024-02-13T16:49:04.928Z,30.59
2024-02-13T16:50:46.391Z,28.86
2024-02-13T16:52:27.776Z,33.24
2024-02-13T16:54:09.173Z,31.57
2024-02-13T16:55:50.741Z,29.96
2024-02-13T16:57:32.301Z,31.36
2024-02-13T16:59:13.838Z,32.77
2024-02-13T17:00:55.265Z,34.42
2024-02-13T17:02:36.783Z,30.75
2024-02-13T17:04:18.278Z,32.46
2024-02-13T17:05:59.760Z,33.22
2024-02-13T17:07:41.555Z,33.72
2024-02-13T17:09:23.111Z,33.73
2024-02-13T17:11:04.477Z,31.58
2024-02-13T17:12:45.880Z,31.90
2024-02-13T17:14:27.265Z,31.81
2024-02-13T17:16:08.964Z,31.36
2024-02-13T17:17:50.389Z,31.76
2024-02-13T17:19:31.967Z,30.96
2024-02-13T17:21:13.415Z,31.06
2024-02-13T17:22:54.838Z,31.23
2024-02-13T17:24:36.183Z,30.92
2024-02-13T17:26:17.537Z,33.53
2024-02-13T17:27:58.928Z,33.50
2024-02-13T17:29:40.414Z,33.24
2024-02-13T17:31:22.324Z,33.77
2024-02-13T17:33:03.982Z,31.38
2024-02-13T17:34:45.599Z,33.28
2024-02-13T17:36:27.161Z,31.21
2024-02-13T17:38:08.629Z,31.30
2024-02-13T17:39:50.054Z,27.46
2024-02-13T17:41:31.573Z,26.93
2024-02-13T17:43:12.965Z,28.99
2024-02-13T17:44:54.355Z,30.28
2024-02-13T17:46:35.718Z,28.95
2024-02-13T17:48:17.212Z,29.45
2024-02-13T17:49:58.705Z,30.54
2024-02-13T17:51:40.123Z,30.90
2024-02-13T17:53:21.519Z,31.61
2024-02-13T17:55:05.606Z,34.18
2024-02-13T17:56:48.685Z,33.82
2024-02-13T17:58:30.124Z,35.94
2024-02-13T18:00:11.742Z,33.76
2024-02-13T18:01:53.124Z,33.61
2024-02-13T18:03:34.672Z,32.26
2024-02-13T18:05:16.187Z,31.85
2024-02-13T18:06:57.732Z,36.02
2024-02-13T18:08:39.257Z,32.71
2024-02-13T18:10:20.658Z,29.80
2024-02-13T18:12:02.090Z,32.29
2024-02-13T18:13:43.567Z,32.94
2024-02-13T18:15:24.928Z,32.76
2024-02-13T18:17:06.317Z,30.77
2024-02-13T18:18:47.928Z,32.86
2024-02-13T18:20:30.109Z,29.33
2024-02-13T18:22:11.734Z,30.05
2024-02-13T18:23:55.203Z,28.33
2024-02-13T18:25:37.477Z,29.52
2024-02-13T18:27:18.826Z,30.32
2024-02-13T18:29:00.174Z,29.39
2024-02-13T18:30:41.540Z,29.86
2024-02-13T18:32:22.924Z,30.59
2024-02-13T18:34:04.527Z,32.10
2024-02-13T18:35:46.537Z,26.45
2024-02-13T18:37:28.185Z,29.95
2024-02-13T18:39:09.756Z,28.79
2024-02-13T18:40:51.250Z,30.27
2024-02-13T18:42:32.622Z,30.55
2024-02-13T18:44:13.986Z,30.92
2024-02-13T18:45:55.392Z,29.51
2024-02-13T18:47:36.909Z,29.29
2024-02-13T18:49:18.439Z,29.30
2024-02-13T18:51:01.103Z,29.00
2024-02-13T18:52:43.814Z,26.80
2024-02-13T18:54:25.187Z,26.37
2024-02-13T18:56:06.561Z,26.67
2024-02-13T18:57:47.932Z,29.17
2024-02-13T18:59:29.996Z,29.99
2024-02-13T19:01:11.700Z,29.52
2024-02-13T19:02:53.146Z,30.18
2024-02-13T19:04:34.620Z,30.97
2024-02-13T19:06:16.066Z,32.95
2024-02-13T19:07:57.455Z,33.71
2024-02-13T19:09:38.811Z,34.70
2024-02-13T19:11:20.161Z,32.54
2024-02-13T19:13:01.515Z,28.43
2024-02-13T19:14:42.899Z,34.10
2024-02-13T19:16:24.235Z,32.44
2024-02-13T19:18:05.729Z,33.43
2024-02-13T19:19:47.266Z,32.78
2024-02-13T19:21:28.679Z,33.87
2024-02-13T19:23:11.236Z,33.22
2024-02-13T19:24:52.640Z,33.21
2024-02-13T19:26:34.246Z,33.23
2024-02-13T19:28:15.885Z,33.38
2024-02-13T19:29:57.975Z,33.36
2024-02-13T19:31:39.380Z,33.19
2024-02-13T19:33:20.926Z,32.75
2024-02-13T19:35:02.488Z,30.67
2024-02-13T19:36:43.859Z,29.47
2024-02-13T19:38:26.061Z,30.14
2024-02-13T19:40:07.681Z,27.89
2024-02-13T19:41:49.065Z,32.05
2024-02-13T19:43:30.446Z,32.84
2024-02-13T19:45:11.848Z,33.94
2024-02-13T19:46:53.201Z,34.91
2024-02-13T19:48:34.626Z,34.46
2024-02-13T19:50:16.137Z,30.46
2024-02-13T19:51:57.529Z,29.32
2024-02-13T19:53:38.916Z,33.06
2024-02-13T19:55:20.438Z,31.65
2024-02-13T19:57:01.814Z,28.97
2024-02-13T19:58:43.241Z,31.04
2024-02-13T20:00:24.650Z,28.31
2024-02-13T20:02:06.385Z,30.36
2024-02-13T20:03:47.751Z,31.46
2024-02-13T20:05:29.298Z,31.67
2024-02-13T20:07:10.864Z,33.46
2024-02-13T20:08:52.437Z,33.37
2024-02-13T20:10:33.912Z,32.31
2024-02-13T20:12:15.330Z,31.59
2024-02-13T20:13:56.690Z,33.86
2024-02-13T20:15:38.137Z,35.32
2024-02-13T20:17:19.531Z,33.76
2024-02-13T20:19:01.267Z,31.74
2024-02-13T20:20:42.915Z,27.63
2024-02-13T20:22:24.285Z,29.51
2024-02-13T20:24:05.773Z,30.46
2024-02-13T20:25:47.250Z,28.85
2024-02-13T20:27:28.596Z,31.94
2024-02-13T20:29:09.951Z,30.52
2024-02-13T20:30:51.347Z,31.16
2024-02-13T20:32:32.860Z,32.04
2024-02-13T20:34:14.426Z,32.25
2024-02-13T20:35:55.954Z,32.88
2024-02-13T20:37:37.370Z,32.74
2024-02-13T20:39:18.738Z,32.31
2024-02-13T20:41:00.087Z,31.33
2024-02-13T20:42:41.439Z,28.16
2024-02-13T20:44:22.850Z,29.67
2024-02-13T20:46:04.232Z,29.64
2024-02-13T20:47:46.895Z,29.43
2024-02-13T20:49:28.544Z,30.19
2024-02-13T20:51:10.043Z,30.57
2024-02-13T20:52:51.471Z,31.32
2024-02-13T20:54:33.007Z,29.74
2024-02-13T20:56:14.359Z,29.77
2024-02-13T20:57:55.685Z,32.71
2024-02-13T20:59:37.140Z,31.84
2024-02-13T21:01:18.553Z,30.75
2024-02-13T21:03:00.094Z,29.25
2024-02-13T21:04:41.536Z,32.44
2024-02-13T21:06:22.954Z,31.65
2024-02-13T21:08:04.392Z,31.37
2024-02-13T21:09:45.883Z,31.68
2024-02-13T21:11:27.328Z,31.08
2024-02-13T21:13:08.762Z,28.83
2024-02-13T21:14:50.169Z,27.18
2024-02-13T21:16:31.700Z,27.25
2024-02-13T21:18:13.098Z,31.62
2024-02-13T21:19:54.614Z,32.54
2024-02-13T21:21:35.978Z,32.66
2024-02-13T21:23:17.328Z,32.08
2024-02-13T21:24:58.691Z,31.85
2024-02-13T21:26:40.209Z,32.24
2024-02-13T21:28:21.596Z,31.93
2024-02-13T21:30:03.022Z,33.30
2024-02-13T21:31:44.478Z,32.66
2024-02-13T21:33:25.905Z,32.35
2024-02-13T21:35:07.363Z,29.24
2024-02-13T21:36:48.790Z,27.77
2024-02-13T21:38:30.358Z,26.44
2024-02-13T21:40:11.712Z,28.94
2024-02-13T21:41:53.136Z,30.81
2024-02-13T21:43:34.497Z,31.52
2024-02-13T21:45:15.937Z,33.79
2024-02-13T21:46:57.323Z,31.37
2024-02-13T21:48:38.804Z,29.82
2024-02-13T21:50:20.274Z,29.77